METAR rapporter

 

EKCH - Copenhagen/Kastr, Denmark
Afstand til vejrstation: SØ 11km
Opdateret: 14/11/2019 13:20
Få skyer
Få skyer
 Vind retning VSV
Vind: VSV 15 km/h
Temperatur: 8°C
Kuldeindeks: 5°C
Dugpunkt: 5°C
Fugtighed: 82%
Barometer: 1010 hPa
Skyer: Få skyer
Sigtbarhed: 10 km
Sky detaljer: Få skyer 305 m
2019/11/14 12:20 EKCH 141220Z AUTO 24008KT 9999 FEW010/// 08/05 Q1010 TEMPO BKN012
EKRK - Copenhagen/Roski, Denmark
Afstand til vejrstation: VSV 29km
Opdateret: 14/11/2019 13:20
Få skyer
Få skyer
 Vind retning SV
Vind: SV 11 km/h
Temperatur: 7°C
Kuldeindeks: 5°C
Dugpunkt: 4°C
Fugtighed: 81%
Barometer: 1009 hPa
Skyer: Få skyer
Sigtbarhed: 10 km
Sky detaljer: Få skyer 305 m
2019/11/14 12:20 EKRK 141220Z AUTO 23006KT 9999 FEW010/// 07/04 Q1009